Aeroporto :
LOGIN :

Iscrizione | Disclaimer

   EN    FR    IT 

 










Sommario :    VFR   VFR Marginale   IFR   IFR Intensivo   IFR Molto Intensivo
Visibilità : 
Base nubi : 
>= 8 km
>= 3000ft
5 / 8 km
1000 / 3000 ft
1500m / 5 km
500 / 1000 ft
800 / 1500m
200 / 500 ft
< 800m
< 200 ft
Simboli :   Temporali  Nebbia  Neve Forte  Precipitazioni Forti  Vento > 20 kt
SIGMETs :   Varie  Temporali  Ghiacco  Turbolenza  Onda orograficha  Ceneri Vulcaniche






- Altitudine del aeroporto : 3 ft
- Codice IATA : LWR


EHLW - Leuuwarden Air Base

ULTIMO METAR :
  • 121355Z AUTO 19014KT 140V220 9999 FEW012 SCT015 06/03 Q0996 WHT 20014KT 9999 SCT015

METARs OBSOLETI :
  • 121339Z AUTO 19015KT 160V220 9999 FEW013 BKN015 OVC019 06/03 Q0996 WHT 20014KT 9999 BKN015
  • 121330Z AUTO 19014KT 140V220 9999 SCT013 BKN016 BKN026 06/03 Q0996 GRN 20014KT 9999 BKN015
  • 121325Z AUTO 20013KT 140V220 9999 SCT013 OVC015 06/04 Q0996 GRN 20014KT 9999 BKN015
  • 121255Z AUTO 20013KT 150V230 9999 OVC016 06/03 Q0996 WHT 20014KT 9999 BKN015
  • 121237Z AUTO 19014KT 150V230 9999 FEW013 BKN016 BKN020 06/03 Q0996 WHT 20014KT 9999 BKN015
  • 121232Z AUTO 20014KT 150V230 9999 FEW014 BKN016 OVC020 06/03 Q0996 WHT 20014KT 9999 BKN015
  • 121155Z AUTO 20014KT 160V230 9999 ////// 06/04 Q0996 BLU
  • 121146Z AUTO 20015KT 150V230 9999 ////// 06/04 Q0997 BLU
  • 121125Z AUTO 20015KT 140V230 9999 SCT012 BKN014 OVC034 06/04 Q0997 GRN
  • 121059Z AUTO 19013KT 150V230 //// // FEW012 BKN014 BKN018 06/04 Q0997

TAF TAF EHLW
Valido dal 12 a 14 ore il 13 a 02 ore UTC


121317Z 1214/1302 19010G20KT 9999 FEW014 SCT016
TEMPO 1214/1217 20014G24KT 4500 SHRA SCT012 SCT018CB BKN020
PROB30
TEMPO 1210/1216 21016G30KT 3000 TSRAGS SCT006 BKN012 BKN015CB
BECMG 1220/1222 SCT015 BKN020
TEMPO 1221/1302 20018G30KT 4500 RA SHRA SCT008 BKN012 SCT018CB
PROB30
TEMPO 1223/1302 3000 TSRAGS SCT005 BKN010 BKN015CB
BECMG 1300/1302 28014G24KT



MetMap, La meteo Aeronautica in un colpo d'occhio ! - Copyright ORBIFLY Dicembre 2007 - Disclaimer

ORBIFLY MET'MAP TEAM :

Programmazione e sviluppo : Alexandra Zaïnal
Concezione e sviluppo : Baudouin d'Aumeries
Co-Programmazione e sviluppo : Marc-Olivier Méhu
Supporto tecnico e logistico : Manuel Goepfert
Aiuto per la traduzione : Arnaldo La Scala

Contatto : metmap@orbifly.com




FONTI E CREDITI :

   NOAA